sensor_id;sensor_type;location;lat;lon;timestamp;pressure;altitude;pressure_sealevel;temperature;humidity
54554;BME280;40450;55.848;-3.572;2023-06-26T00:00:46;99009.18;;;17.92;69.14
54554;BME280;40450;55.848;-3.572;2023-06-26T00:03:16;99012.94;;;17.76;69.66
54554;BME280;40450;55.848;-3.572;2023-06-26T00:05:41;99015.73;;;17.52;69.98
54554;BME280;40450;55.848;-3.572;2023-06-26T00:08:17;99012.87;;;17.82;69.19
54554;BME280;40450;55.848;-3.572;2023-06-26T00:10:47;99013.38;;;17.02;70.28
54554;BME280;40450;55.848;-3.572;2023-06-26T00:13:17;99012.12;;;17.64;69.67
54554;BME280;40450;55.848;-3.572;2023-06-26T00:15:48;99012.09;;;17.86;69.00
54554;BME280;40450;55.848;-3.572;2023-06-26T00:18:18;99013.11;;;18.04;68.83
54554;BME280;40450;55.848;-3.572;2023-06-26T00:20:49;99018.50;;;16.72;71.19
54554;BME280;40450;55.848;-3.572;2023-06-26T00:23:15;99014.81;;;17.52;69.72
54554;BME280;40450;55.848;-3.572;2023-06-26T00:25:49;99016.52;;;17.68;68.89
54554;BME280;40450;55.848;-3.572;2023-06-26T00:28:22;99015.64;;;16.97;69.99
54554;BME280;40450;55.848;-3.572;2023-06-26T00:30:53;99018.11;;;16.88;69.86
54554;BME280;40450;55.848;-3.572;2023-06-26T00:33:23;99018.25;;;17.17;69.86
54554;BME280;40450;55.848;-3.572;2023-06-26T00:35:53;99022.79;;;17.20;69.51
54554;BME280;40450;55.848;-3.572;2023-06-26T00:38:16;99023.88;;;17.72;68.75
54554;BME280;40450;55.848;-3.572;2023-06-26T00:40:54;99028.61;;;17.09;68.75
54554;BME280;40450;55.848;-3.572;2023-06-26T00:43:17;99029.08;;;17.04;70.01
54554;BME280;40450;55.848;-3.572;2023-06-26T00:45:55;99035.21;;;16.96;70.63
54554;BME280;40450;55.848;-3.572;2023-06-26T00:48:18;99035.59;;;16.65;70.84
54554;BME280;40450;55.848;-3.572;2023-06-26T00:50:56;99034.16;;;17.18;69.62
54554;BME280;40450;55.848;-3.572;2023-06-26T00:53:18;99035.07;;;17.19;69.12
54554;BME280;40450;55.848;-3.572;2023-06-26T00:55:56;99036.09;;;16.68;70.05
54554;BME280;40450;55.848;-3.572;2023-06-26T00:58:27;99039.23;;;15.80;73.13
54554;BME280;40450;55.848;-3.572;2023-06-26T01:00:57;99041.25;;;16.74;70.52
54554;BME280;40450;55.848;-3.572;2023-06-26T01:03:19;99046.18;;;16.75;70.64
54554;BME280;40450;55.848;-3.572;2023-06-26T01:05:50;99049.63;;;16.77;70.51
54554;BME280;40450;55.848;-3.572;2023-06-26T01:08:28;99049.32;;;16.53;70.25
54554;BME280;40450;55.848;-3.572;2023-06-26T01:10:50;99051.86;;;16.42;71.29
54554;BME280;40450;55.848;-3.572;2023-06-26T01:13:21;99053.44;;;16.90;70.08
54554;BME280;40450;55.848;-3.572;2023-06-26T01:15:52;99056.93;;;17.22;69.44
54554;BME280;40450;55.848;-3.572;2023-06-26T01:18:26;99055.23;;;17.39;68.87
54554;BME280;40450;55.848;-3.572;2023-06-26T01:20:52;99059.26;;;17.16;68.90
54554;BME280;40450;55.848;-3.572;2023-06-26T01:23:37;99060.09;;;17.04;69.05
54554;BME280;40450;55.848;-3.572;2023-06-26T01:28:24;99060.36;;;17.10;69.37
54554;BME280;40450;55.848;-3.572;2023-06-26T01:30:54;99062.62;;;16.52;70.88
54554;BME280;40450;55.848;-3.572;2023-06-26T01:33:32;99065.17;;;17.00;69.93
54554;BME280;40450;55.848;-3.572;2023-06-26T01:35:54;99064.41;;;16.96;69.37
54554;BME280;40450;55.848;-3.572;2023-06-26T01:38:29;99064.92;;;16.64;70.42
54554;BME280;40450;55.848;-3.572;2023-06-26T01:40:55;99066.57;;;16.72;70.29
54554;BME280;40450;55.848;-3.572;2023-06-26T01:43:30;99070.07;;;16.62;69.76
54554;BME280;40450;55.848;-3.572;2023-06-26T01:46:00;99069.94;;;17.01;69.67
54554;BME280;40450;55.848;-3.572;2023-06-26T01:48:33;99071.22;;;17.06;69.24
54554;BME280;40450;55.848;-3.572;2023-06-26T01:51:05;99072.64;;;16.66;69.99
54554;BME280;40450;55.848;-3.572;2023-06-26T01:53:38;99074.13;;;16.99;69.12
54554;BME280;40450;55.848;-3.572;2023-06-26T01:56:07;99073.62;;;16.48;70.32
54554;BME280;40450;55.848;-3.572;2023-06-26T01:58:33;99075.04;;;17.21;68.74
54554;BME280;40450;55.848;-3.572;2023-06-26T02:01:06;99074.76;;;16.97;69.04
54554;BME280;40450;55.848;-3.572;2023-06-26T02:03:28;99073.33;;;16.65;69.50
54554;BME280;40450;55.848;-3.572;2023-06-26T02:05:58;99075.79;;;16.77;69.01
54554;BME280;40450;55.848;-3.572;2023-06-26T02:08:29;99077.60;;;16.50;70.21
54554;BME280;40450;55.848;-3.572;2023-06-26T02:10:59;99079.27;;;16.43;69.72
54554;BME280;40450;55.848;-3.572;2023-06-26T02:13:29;99082.89;;;15.88;71.94
54554;BME280;40450;55.848;-3.572;2023-06-26T02:16:00;99080.39;;;16.02;71.34
54554;BME280;40450;55.848;-3.572;2023-06-26T02:18:30;99079.05;;;16.17;71.27
54554;BME280;40450;55.848;-3.572;2023-06-26T02:21:02;99084.34;;;16.32;70.82
54554;BME280;40450;55.848;-3.572;2023-06-26T02:23:31;99082.26;;;16.09;70.92
54554;BME280;40450;55.848;-3.572;2023-06-26T02:26:01;99084.13;;;16.15;71.08
54554;BME280;40450;55.848;-3.572;2023-06-26T02:28:32;99083.36;;;15.98;71.34
54554;BME280;40450;55.848;-3.572;2023-06-26T02:31:02;99084.87;;;16.13;70.78
54554;BME280;40450;55.848;-3.572;2023-06-26T02:33:33;99080.47;;;16.04;71.21
54554;BME280;40450;55.848;-3.572;2023-06-26T02:36:03;99084.85;;;16.44;70.82
54554;BME280;40450;55.848;-3.572;2023-06-26T02:38:33;99082.07;;;16.47;69.49
54554;BME280;40450;55.848;-3.572;2023-06-26T02:41:04;99080.16;;;16.14;70.40
54554;BME280;40450;55.848;-3.572;2023-06-26T02:43:34;99081.30;;;16.01;71.16
54554;BME280;40450;55.848;-3.572;2023-06-26T02:46:05;99084.77;;;16.31;70.18
54554;BME280;40450;55.848;-3.572;2023-06-26T02:48:35;99083.22;;;16.32;70.39
54554;BME280;40450;55.848;-3.572;2023-06-26T02:51:07;99082.46;;;16.07;70.50
54554;BME280;40450;55.848;-3.572;2023-06-26T02:53:36;99090.28;;;15.91;70.79
54554;BME280;40450;55.848;-3.572;2023-06-26T02:56:06;99087.47;;;15.98;70.58
54554;BME280;40450;55.848;-3.572;2023-06-26T02:58:37;99094.20;;;15.89;71.18
54554;BME280;40450;55.848;-3.572;2023-06-26T03:01:07;99095.72;;;15.74;71.06
54554;BME280;40450;55.848;-3.572;2023-06-26T03:03:37;99097.37;;;15.87;70.93
54554;BME280;40450;55.848;-3.572;2023-06-26T03:06:08;99091.01;;;16.07;70.54
54554;BME280;40450;55.848;-3.572;2023-06-26T03:08:39;99095.80;;;16.13;70.50
54554;BME280;40450;55.848;-3.572;2023-06-26T03:11:09;99098.55;;;16.16;70.30
54554;BME280;40450;55.848;-3.572;2023-06-26T03:13:39;99104.49;;;15.92;70.59
54554;BME280;40450;55.848;-3.572;2023-06-26T03:16:09;99106.50;;;15.72;70.46
54554;BME280;40450;55.848;-3.572;2023-06-26T03:18:39;99099.04;;;16.21;70.37
54554;BME280;40450;55.848;-3.572;2023-06-26T03:21:10;99095.09;;;16.52;69.35
54554;BME280;40450;55.848;-3.572;2023-06-26T03:23:40;99098.43;;;16.44;68.87
54554;BME280;40450;55.848;-3.572;2023-06-26T03:26:10;99097.84;;;15.87;70.14
54554;BME280;40450;55.848;-3.572;2023-06-26T03:28:41;99096.58;;;16.38;69.52
54554;BME280;40450;55.848;-3.572;2023-06-26T03:31:11;99100.01;;;16.40;69.17
54554;BME280;40450;55.848;-3.572;2023-06-26T03:33:42;99103.74;;;16.19;69.77
54554;BME280;40450;55.848;-3.572;2023-06-26T03:36:12;99103.59;;;16.21;69.83
54554;BME280;40450;55.848;-3.572;2023-06-26T03:38:43;99110.87;;;15.82;70.37
54554;BME280;40450;55.848;-3.572;2023-06-26T03:41:13;99108.72;;;15.73;71.73
54554;BME280;40450;55.848;-3.572;2023-06-26T03:43:43;99112.08;;;15.45;71.85
54554;BME280;40450;55.848;-3.572;2023-06-26T03:46:13;99113.54;;;15.40;71.94
54554;BME280;40450;55.848;-3.572;2023-06-26T03:48:44;99111.86;;;15.42;73.22
54554;BME280;40450;55.848;-3.572;2023-06-26T03:51:14;99114.74;;;15.31;73.94
54554;BME280;40450;55.848;-3.572;2023-06-26T03:53:45;99116.06;;;15.44;73.69
54554;BME280;40450;55.848;-3.572;2023-06-26T03:56:15;99117.34;;;15.28;74.36
54554;BME280;40450;55.848;-3.572;2023-06-26T03:58:45;99119.25;;;14.62;76.67
54554;BME280;40450;55.848;-3.572;2023-06-26T04:01:16;99127.09;;;13.14;81.78
54554;BME280;40450;55.848;-3.572;2023-06-26T04:03:46;99127.05;;;12.79;83.10
54554;BME280;40450;55.848;-3.572;2023-06-26T04:06:16;99123.25;;;12.63;84.22
54554;BME280;40450;55.848;-3.572;2023-06-26T04:08:47;99122.26;;;12.30;85.63
54554;BME280;40450;55.848;-3.572;2023-06-26T04:11:17;99125.63;;;12.64;84.94
54554;BME280;40450;55.848;-3.572;2023-06-26T04:13:47;99123.80;;;12.80;84.28
54554;BME280;40450;55.848;-3.572;2023-06-26T04:16:18;99122.27;;;12.98;83.90
54554;BME280;40450;55.848;-3.572;2023-06-26T04:18:48;99119.32;;;13.22;83.15
54554;BME280;40450;55.848;-3.572;2023-06-26T04:21:18;99117.45;;;13.58;82.60
54554;BME280;40450;55.848;-3.572;2023-06-26T04:23:49;99118.35;;;12.79;85.11
54554;BME280;40450;55.848;-3.572;2023-06-26T04:26:19;99121.34;;;13.12;84.15
54554;BME280;40450;55.848;-3.572;2023-06-26T04:28:49;99117.04;;;13.66;82.74
54554;BME280;40450;55.848;-3.572;2023-06-26T04:31:20;99120.02;;;14.03;81.46
54554;BME280;40450;55.848;-3.572;2023-06-26T04:33:50;99117.92;;;14.09;81.59
54554;BME280;40450;55.848;-3.572;2023-06-26T04:36:21;99122.11;;;14.73;80.94
54554;BME280;40450;55.848;-3.572;2023-06-26T04:38:51;99128.24;;;15.07;80.33
54554;BME280;40450;55.848;-3.572;2023-06-26T04:41:22;99125.53;;;15.16;79.27
54554;BME280;40450;55.848;-3.572;2023-06-26T04:43:52;99130.60;;;15.21;79.20
54554;BME280;40450;55.848;-3.572;2023-06-26T04:46:22;99134.71;;;14.96;79.62
54554;BME280;40450;55.848;-3.572;2023-06-26T04:48:53;99134.93;;;14.84;80.12
54554;BME280;40450;55.848;-3.572;2023-06-26T04:51:23;99133.74;;;14.86;80.71
54554;BME280;40450;55.848;-3.572;2023-06-26T04:53:53;99131.59;;;14.50;81.34
54554;BME280;40450;55.848;-3.572;2023-06-26T04:56:24;99129.20;;;14.31;81.57
54554;BME280;40450;55.848;-3.572;2023-06-26T04:58:54;99134.90;;;14.35;81.95
54554;BME280;40450;55.848;-3.572;2023-06-26T05:01:25;99143.79;;;15.03;80.64
54554;BME280;40450;55.848;-3.572;2023-06-26T05:03:55;99138.63;;;14.91;80.88
54554;BME280;40450;55.848;-3.572;2023-06-26T05:06:25;99140.18;;;14.89;80.80
54554;BME280;40450;55.848;-3.572;2023-06-26T05:08:55;99142.62;;;14.42;82.53
54554;BME280;40450;55.848;-3.572;2023-06-26T05:11:26;99141.75;;;14.63;81.93
54554;BME280;40450;55.848;-3.572;2023-06-26T05:13:56;99145.00;;;15.34;79.71
54554;BME280;40450;55.848;-3.572;2023-06-26T05:16:26;99143.93;;;14.21;82.25
54554;BME280;40450;55.848;-3.572;2023-06-26T05:18:57;99145.18;;;14.92;81.07
54554;BME280;40450;55.848;-3.572;2023-06-26T05:21:28;99146.55;;;14.96;82.32
54554;BME280;40450;55.848;-3.572;2023-06-26T05:23:58;99145.94;;;14.67;81.71
54554;BME280;40450;55.848;-3.572;2023-06-26T05:26:34;99140.79;;;14.47;81.89
54554;BME280;40450;55.848;-3.572;2023-06-26T05:29:07;99135.34;;;14.75;81.73
54554;BME280;40450;55.848;-3.572;2023-06-26T05:31:31;99138.72;;;14.60;81.37
54554;BME280;40450;55.848;-3.572;2023-06-26T05:34:01;99138.43;;;14.87;80.97
54554;BME280;40450;55.848;-3.572;2023-06-26T05:36:39;99142.60;;;15.03;80.61
54554;BME280;40450;55.848;-3.572;2023-06-26T05:39:00;99144.64;;;14.94;80.93
54554;BME280;40450;55.848;-3.572;2023-06-26T05:41:39;99141.15;;;14.28;82.77
54554;BME280;40450;55.848;-3.572;2023-06-26T05:44:09;99145.70;;;15.04;80.86
54554;BME280;40450;55.848;-3.572;2023-06-26T05:46:39;99144.92;;;14.60;82.24
54554;BME280;40450;55.848;-3.572;2023-06-26T05:49:02;99144.13;;;15.00;80.73
54554;BME280;40450;55.848;-3.572;2023-06-26T05:51:40;99146.16;;;15.62;80.07
54554;BME280;40450;55.848;-3.572;2023-06-26T05:54:11;99148.29;;;15.28;81.05
54554;BME280;40450;55.848;-3.572;2023-06-26T05:56:41;99156.44;;;15.32;80.12
54554;BME280;40450;55.848;-3.572;2023-06-26T05:59:08;99156.21;;;15.75;78.83
54554;BME280;40450;55.848;-3.572;2023-06-26T06:01:38;99154.72;;;15.95;77.69
54554;BME280;40450;55.848;-3.572;2023-06-26T06:04:03;99161.23;;;15.44;79.00
54554;BME280;40450;55.848;-3.572;2023-06-26T06:06:41;99167.01;;;15.69;78.50
54554;BME280;40450;55.848;-3.572;2023-06-26T06:09:12;99167.32;;;16.03;77.71
54554;BME280;40450;55.848;-3.572;2023-06-26T06:11:42;99172.21;;;16.13;77.76
54554;BME280;40450;55.848;-3.572;2023-06-26T06:14:13;99173.51;;;15.76;78.08
54554;BME280;40450;55.848;-3.572;2023-06-26T06:16:36;99176.38;;;15.53;78.62
54554;BME280;40450;55.848;-3.572;2023-06-26T06:19:05;99176.53;;;15.67;78.07
54554;BME280;40450;55.848;-3.572;2023-06-26T06:21:36;99171.41;;;16.54;77.20
54554;BME280;40450;55.848;-3.572;2023-06-26T06:24:06;99176.62;;;16.29;77.00
54554;BME280;40450;55.848;-3.572;2023-06-26T06:26:36;99180.16;;;14.96;81.14
54554;BME280;40450;55.848;-3.572;2023-06-26T06:29:07;99183.44;;;15.91;79.55
54554;BME280;40450;55.848;-3.572;2023-06-26T06:31:37;99182.74;;;15.17;80.27
54554;BME280;40450;55.848;-3.572;2023-06-26T06:34:07;99180.91;;;15.41;79.72
54554;BME280;40450;55.848;-3.572;2023-06-26T06:36:38;99177.70;;;16.04;78.30
54554;BME280;40450;55.848;-3.572;2023-06-26T06:39:08;99180.11;;;15.13;81.26
54554;BME280;40450;55.848;-3.572;2023-06-26T06:41:39;99184.61;;;15.37;80.75
54554;BME280;40450;55.848;-3.572;2023-06-26T06:44:09;99186.92;;;15.17;81.26
54554;BME280;40450;55.848;-3.572;2023-06-26T06:46:39;99188.46;;;15.52;80.69
54554;BME280;40450;55.848;-3.572;2023-06-26T06:49:10;99186.99;;;15.99;80.39
54554;BME280;40450;55.848;-3.572;2023-06-26T06:51:40;99194.22;;;15.63;81.31
54554;BME280;40450;55.848;-3.572;2023-06-26T06:54:11;99194.95;;;15.76;80.36
54554;BME280;40450;55.848;-3.572;2023-06-26T06:56:41;99195.12;;;16.63;78.67
54554;BME280;40450;55.848;-3.572;2023-06-26T06:59:11;99201.49;;;15.92;78.48
54554;BME280;40450;55.848;-3.572;2023-06-26T07:01:42;99194.25;;;16.85;75.04
54554;BME280;40450;55.848;-3.572;2023-06-26T07:04:12;99205.38;;;16.49;77.30
54554;BME280;40450;55.848;-3.572;2023-06-26T07:06:42;99200.62;;;17.02;74.90
54554;BME280;40450;55.848;-3.572;2023-06-26T07:09:13;99202.48;;;17.52;74.80
54554;BME280;40450;55.848;-3.572;2023-06-26T07:11:43;99202.73;;;16.79;74.69
54554;BME280;40450;55.848;-3.572;2023-06-26T07:14:13;99200.52;;;16.91;75.63
54554;BME280;40450;55.848;-3.572;2023-06-26T07:16:43;99197.38;;;17.54;73.89
54554;BME280;40450;55.848;-3.572;2023-06-26T07:19:14;99197.91;;;16.92;74.65
54554;BME280;40450;55.848;-3.572;2023-06-26T07:21:44;99200.54;;;17.08;74.00
54554;BME280;40450;55.848;-3.572;2023-06-26T07:24:15;99201.76;;;17.54;73.59
54554;BME280;40450;55.848;-3.572;2023-06-26T07:26:45;99196.26;;;17.31;73.26
54554;BME280;40450;55.848;-3.572;2023-06-26T07:29:15;99197.46;;;16.30;75.99
54554;BME280;40450;55.848;-3.572;2023-06-26T07:31:46;99198.36;;;17.05;73.41
54554;BME280;40450;55.848;-3.572;2023-06-26T07:34:16;99199.95;;;16.83;74.90
54554;BME280;40450;55.848;-3.572;2023-06-26T07:36:47;99197.29;;;17.18;72.87
54554;BME280;40450;55.848;-3.572;2023-06-26T07:39:17;99196.40;;;17.37;71.32
54554;BME280;40450;55.848;-3.572;2023-06-26T07:41:47;99200.60;;;17.66;70.59
54554;BME280;40450;55.848;-3.572;2023-06-26T07:44:18;99200.15;;;16.99;71.13
54554;BME280;40450;55.848;-3.572;2023-06-26T07:46:48;99201.95;;;17.36;71.10
54554;BME280;40450;55.848;-3.572;2023-06-26T07:49:18;99203.59;;;16.04;74.83
54554;BME280;40450;55.848;-3.572;2023-06-26T07:51:49;99204.73;;;16.57;75.17
54554;BME280;40450;55.848;-3.572;2023-06-26T07:54:19;99210.53;;;15.85;74.74
54554;BME280;40450;55.848;-3.572;2023-06-26T07:56:54;99202.75;;;16.61;73.68
54554;BME280;40450;55.848;-3.572;2023-06-26T07:59:20;99205.00;;;16.46;72.98
54554;BME280;40450;55.848;-3.572;2023-06-26T08:01:52;99205.44;;;16.65;73.53
54554;BME280;40450;55.848;-3.572;2023-06-26T08:04:23;99208.38;;;17.10;72.46
54554;BME280;40450;55.848;-3.572;2023-06-26T08:06:54;99220.67;;;16.46;74.08
54554;BME280;40450;55.848;-3.572;2023-06-26T08:09:24;99211.03;;;17.59;71.44
54554;BME280;40450;55.848;-3.572;2023-06-26T08:11:53;99207.40;;;17.47;70.31
54554;BME280;40450;55.848;-3.572;2023-06-26T08:14:23;99212.12;;;17.43;70.10
54554;BME280;40450;55.848;-3.572;2023-06-26T08:16:53;99218.76;;;16.67;71.61
54554;BME280;40450;55.848;-3.572;2023-06-26T08:19:23;99218.04;;;14.78;76.30
54554;BME280;40450;55.848;-3.572;2023-06-26T08:21:54;99218.87;;;16.60;72.42
54554;BME280;40450;55.848;-3.572;2023-06-26T08:24:24;99216.13;;;16.60;71.84
54554;BME280;40450;55.848;-3.572;2023-06-26T08:26:54;99219.12;;;17.02;71.13
54554;BME280;40450;55.848;-3.572;2023-06-26T08:29:25;99222.04;;;16.72;70.50
54554;BME280;40450;55.848;-3.572;2023-06-26T08:31:55;99215.59;;;17.39;68.70
54554;BME280;40450;55.848;-3.572;2023-06-26T08:34:25;99211.92;;;17.30;68.36
54554;BME280;40450;55.848;-3.572;2023-06-26T08:36:56;99221.83;;;15.62;71.70
54554;BME280;40450;55.848;-3.572;2023-06-26T08:39:27;99215.89;;;16.28;69.87
54554;BME280;40450;55.848;-3.572;2023-06-26T08:41:57;99228.34;;;16.47;70.71
54554;BME280;40450;55.848;-3.572;2023-06-26T08:44:27;99221.25;;;17.26;68.57
54554;BME280;40450;55.848;-3.572;2023-06-26T08:46:59;99229.39;;;16.52;69.21
54554;BME280;40450;55.848;-3.572;2023-06-26T08:49:34;99221.25;;;17.03;69.74
54554;BME280;40450;55.848;-3.572;2023-06-26T08:52:02;99224.79;;;16.73;68.78
54554;BME280;40450;55.848;-3.572;2023-06-26T08:54:34;99224.33;;;17.48;67.28
54554;BME280;40450;55.848;-3.572;2023-06-26T08:57:00;99230.51;;;16.59;67.52
54554;BME280;40450;55.848;-3.572;2023-06-26T08:59:30;99247.78;;;14.56;75.89
54554;BME280;40450;55.848;-3.572;2023-06-26T09:02:00;99247.64;;;13.71;82.94
54554;BME280;40450;55.848;-3.572;2023-06-26T09:04:31;99241.81;;;12.90;87.21
54554;BME280;40450;55.848;-3.572;2023-06-26T09:07:01;99251.51;;;12.00;91.12
54554;BME280;40450;55.848;-3.572;2023-06-26T09:09:32;99249.08;;;13.18;87.35
54554;BME280;40450;55.848;-3.572;2023-06-26T09:12:02;99256.94;;;12.72;88.70
54554;BME280;40450;55.848;-3.572;2023-06-26T09:14:32;99267.05;;;12.44;89.84
54554;BME280;40450;55.848;-3.572;2023-06-26T09:17:03;99266.74;;;12.32;91.31
54554;BME280;40450;55.848;-3.572;2023-06-26T09:19:36;99269.65;;;12.07;93.74
54554;BME280;40450;55.848;-3.572;2023-06-26T09:22:03;99269.60;;;12.24;94.16
54554;BME280;40450;55.848;-3.572;2023-06-26T09:24:34;99271.79;;;11.96;94.04
54554;BME280;40450;55.848;-3.572;2023-06-26T09:27:04;99272.52;;;11.79;94.26
54554;BME280;40450;55.848;-3.572;2023-06-26T09:29:34;99274.51;;;12.23;93.53
54554;BME280;40450;55.848;-3.572;2023-06-26T09:32:05;99279.26;;;11.96;93.89
54554;BME280;40450;55.848;-3.572;2023-06-26T09:34:35;99284.24;;;13.06;91.18
54554;BME280;40450;55.848;-3.572;2023-06-26T09:37:06;99290.62;;;13.50;88.85
54554;BME280;40450;55.848;-3.572;2023-06-26T09:39:36;99287.05;;;13.79;90.00
54554;BME280;40450;55.848;-3.572;2023-06-26T09:42:06;99289.51;;;14.82;86.11
54554;BME280;40450;55.848;-3.572;2023-06-26T09:44:37;99289.70;;;15.90;84.58
54554;BME280;40450;55.848;-3.572;2023-06-26T09:47:07;99285.08;;;15.78;81.37
54554;BME280;40450;55.848;-3.572;2023-06-26T09:49:41;99289.46;;;15.41;82.08
54554;BME280;40450;55.848;-3.572;2023-06-26T09:52:08;99289.66;;;15.07;81.87
54554;BME280;40450;55.848;-3.572;2023-06-26T09:54:38;99296.96;;;15.09;82.60
54554;BME280;40450;55.848;-3.572;2023-06-26T09:57:09;99290.74;;;15.08;82.18
54554;BME280;40450;55.848;-3.572;2023-06-26T09:59:39;99290.78;;;15.18;82.94
54554;BME280;40450;55.848;-3.572;2023-06-26T10:02:09;99289.75;;;15.93;80.99
54554;BME280;40450;55.848;-3.572;2023-06-26T10:04:39;99291.60;;;16.15;80.04
54554;BME280;40450;55.848;-3.572;2023-06-26T10:07:11;99297.63;;;16.45;80.00
54554;BME280;40450;55.848;-3.572;2023-06-26T10:09:42;99297.25;;;16.19;80.95
54554;BME280;40450;55.848;-3.572;2023-06-26T10:12:15;99298.55;;;16.64;81.00
54554;BME280;40450;55.848;-3.572;2023-06-26T10:14:41;99300.71;;;15.77;81.66
54554;BME280;40450;55.848;-3.572;2023-06-26T10:17:15;99305.89;;;16.60;80.25
54554;BME280;40450;55.848;-3.572;2023-06-26T10:19:44;99311.19;;;16.96;80.96
54554;BME280;40450;55.848;-3.572;2023-06-26T10:22:15;99319.12;;;16.41;82.36
54554;BME280;40450;55.848;-3.572;2023-06-26T10:24:44;99323.67;;;16.68;80.94
54554;BME280;40450;55.848;-3.572;2023-06-26T10:27:16;99326.11;;;16.84;79.26
54554;BME280;40450;55.848;-3.572;2023-06-26T10:29:44;99318.03;;;17.99;76.65
54554;BME280;40450;55.848;-3.572;2023-06-26T10:32:14;99323.58;;;17.84;76.02
54554;BME280;40450;55.848;-3.572;2023-06-26T10:34:44;99325.14;;;17.63;76.15
54554;BME280;40450;55.848;-3.572;2023-06-26T10:37:14;99324.47;;;18.37;75.78
54554;BME280;40450;55.848;-3.572;2023-06-26T10:39:47;99320.26;;;18.63;76.01
54554;BME280;40450;55.848;-3.572;2023-06-26T10:42:15;99314.48;;;18.07;77.77
54554;BME280;40450;55.848;-3.572;2023-06-26T10:44:46;99321.09;;;17.66;79.21
54554;BME280;40450;55.848;-3.572;2023-06-26T10:49:47;99328.01;;;15.95;81.42
54554;BME280;40450;55.848;-3.572;2023-06-26T10:52:16;99336.64;;;16.52;81.38
54554;BME280;40450;55.848;-3.572;2023-06-26T10:54:46;99332.16;;;16.67;80.61
54554;BME280;40450;55.848;-3.572;2023-06-26T10:57:23;99329.50;;;16.97;80.22
54554;BME280;40450;55.848;-3.572;2023-06-26T10:59:47;99332.76;;;16.75;78.50
54554;BME280;40450;55.848;-3.572;2023-06-26T11:02:17;99329.51;;;17.23;78.19
54554;BME280;40450;55.848;-3.572;2023-06-26T11:04:51;99331.57;;;17.76;77.80
54554;BME280;40450;55.848;-3.572;2023-06-26T11:07:19;99330.07;;;17.23;77.08
54554;BME280;40450;55.848;-3.572;2023-06-26T11:09:53;99319.66;;;18.11;74.88
54554;BME280;40450;55.848;-3.572;2023-06-26T11:14:49;99322.69;;;17.64;74.64
54554;BME280;40450;55.848;-3.572;2023-06-26T11:17:19;99328.44;;;17.33;73.72
54554;BME280;40450;55.848;-3.572;2023-06-26T11:19:49;99330.79;;;17.81;70.58
54554;BME280;40450;55.848;-3.572;2023-06-26T11:22:20;99333.77;;;18.01;72.52
54554;BME280;40450;55.848;-3.572;2023-06-26T11:24:53;99337.37;;;17.18;72.75
54554;BME280;40450;55.848;-3.572;2023-06-26T11:27:20;99333.71;;;17.55;72.69
54554;BME280;40450;55.848;-3.572;2023-06-26T11:29:51;99351.18;;;17.04;72.93
54554;BME280;40450;55.848;-3.572;2023-06-26T11:32:21;99353.23;;;17.07;75.79
54554;BME280;40450;55.848;-3.572;2023-06-26T11:34:51;99352.10;;;18.22;71.57
54554;BME280;40450;55.848;-3.572;2023-06-26T11:37:22;99361.47;;;16.96;72.44
54554;BME280;40450;55.848;-3.572;2023-06-26T11:39:52;99363.54;;;17.06;73.83
54554;BME280;40450;55.848;-3.572;2023-06-26T11:42:24;99363.93;;;17.26;71.73
54554;BME280;40450;55.848;-3.572;2023-06-26T11:44:53;99361.41;;;17.35;72.42
54554;BME280;40450;55.848;-3.572;2023-06-26T11:47:24;99354.13;;;18.13;69.33
54554;BME280;40450;55.848;-3.572;2023-06-26T11:49:54;99356.43;;;18.13;70.54
54554;BME280;40450;55.848;-3.572;2023-06-26T11:52:24;99365.88;;;17.84;68.75
54554;BME280;40450;55.848;-3.572;2023-06-26T11:54:54;99369.10;;;17.83;71.83
54554;BME280;40450;55.848;-3.572;2023-06-26T11:57:25;99372.15;;;18.01;71.78
54554;BME280;40450;55.848;-3.572;2023-06-26T11:59:55;99372.84;;;17.28;71.94
54554;BME280;40450;55.848;-3.572;2023-06-26T12:02:25;99372.50;;;17.69;74.52
54554;BME280;40450;55.848;-3.572;2023-06-26T12:04:56;99376.70;;;17.21;71.22
54554;BME280;40450;55.848;-3.572;2023-06-26T12:07:26;99379.24;;;16.98;72.53
54554;BME280;40450;55.848;-3.572;2023-06-26T12:09:56;99380.17;;;17.44;71.71
54554;BME280;40450;55.848;-3.572;2023-06-26T12:12:27;99383.11;;;17.12;73.58
54554;BME280;40450;55.848;-3.572;2023-06-26T12:14:57;99378.17;;;16.38;74.54
54554;BME280;40450;55.848;-3.572;2023-06-26T12:17:27;99385.24;;;17.28;74.07
54554;BME280;40450;55.848;-3.572;2023-06-26T12:19:57;99391.51;;;17.25;72.10
54554;BME280;40450;55.848;-3.572;2023-06-26T12:22:34;99386.44;;;16.83;71.22
54554;BME280;40450;55.848;-3.572;2023-06-26T12:24:58;99396.98;;;16.86;71.84
54554;BME280;40450;55.848;-3.572;2023-06-26T12:27:29;99392.23;;;16.50;71.56
54554;BME280;40450;55.848;-3.572;2023-06-26T12:29:59;99393.70;;;16.52;72.93
54554;BME280;40450;55.848;-3.572;2023-06-26T12:32:29;99382.70;;;15.80;74.40
54554;BME280;40450;55.848;-3.572;2023-06-26T12:35:00;99402.21;;;17.26;73.77
54554;BME280;40450;55.848;-3.572;2023-06-26T12:37:36;99402.69;;;16.71;72.99
54554;BME280;40450;55.848;-3.572;2023-06-26T12:40:00;99399.31;;;17.17;74.05
54554;BME280;40450;55.848;-3.572;2023-06-26T12:42:33;99400.79;;;16.98;74.76
54554;BME280;40450;55.848;-3.572;2023-06-26T12:45:10;99392.62;;;17.87;71.17
54554;BME280;40450;55.848;-3.572;2023-06-26T12:47:32;99397.34;;;17.55;72.58
54554;BME280;40450;55.848;-3.572;2023-06-26T12:50:05;99385.23;;;17.94;71.33
54554;BME280;40450;55.848;-3.572;2023-06-26T12:52:32;99381.00;;;18.07;71.48
54554;BME280;40450;55.848;-3.572;2023-06-26T12:55:02;99376.17;;;18.23;68.53
54554;BME280;40450;55.848;-3.572;2023-06-26T12:57:33;99381.08;;;19.27;69.26
54554;BME280;40450;55.848;-3.572;2023-06-26T13:00:04;99383.68;;;19.21;66.10
54554;BME280;40450;55.848;-3.572;2023-06-26T13:02:33;99383.92;;;17.79;66.20
54554;BME280;40450;55.848;-3.572;2023-06-26T13:05:04;99384.08;;;17.00;70.09
54554;BME280;40450;55.848;-3.572;2023-06-26T13:07:34;99386.31;;;18.26;67.33
54554;BME280;40450;55.848;-3.572;2023-06-26T13:10:05;99387.93;;;18.08;66.38
54554;BME280;40450;55.848;-3.572;2023-06-26T13:12:34;99387.17;;;18.47;65.20